Carnival Victory — 3FFL8 — position and weather

sailwx.info

Track history (hours):
 
Tides and Currents Weather Stations Pressure Air Temp Water Temp Dewpoint Dewpoint Depression Visibility Wind Speed Wind Dir Waves Ship Positions

Carnival Victory

Operator: Carnival Cruise Lines

Last reported at 2018-Oct-22 23:03 UTC. Time now 2018-Oct-22 23:07 UTC.
Position N 25°59' W 079°41'.

Type: Passenger vessel. MMSI: 355263000.

Date/timePositionNaut miles runAvg speedWind from/ knotsBaromVisibWave heightAir tempDewpointWater temp
2018-Oct-22 23:03N 25°59' W 079°41'113.0
2018-Oct-22 23:01N 25°59' W 079°41'612.9
2018-Oct-22 22:31N 25°55' W 079°47'613.0
2018-Oct-22 22:03N 25°52' W 079°53'113.4
2018-Oct-22 22:01N 25°52' W 079°53'815.9
2018-Oct-22 21:31N 25°48' W 080°01'4 9.3
2018-Oct-22 21:03N 25°46' W 080°05'111.5
2018-Oct-22 21:01N 25°46' W 080°06'4 5.7
2018-Oct-22 20:20N 25°46' W 080°10'0 0.0
2018-Oct-22 20:02N 25°46' W 080°10'0 0.0
2018-Oct-22 19:56N 25°46' W 080°10'0 0.0
2018-Oct-22 19:20N 25°46' W 080°10'0 0.0
2018-Oct-22 19:02N 25°46' W 080°10'0 0.0
2018-Oct-22 18:56N 25°46' W 080°10'0 0.0
2018-Oct-22 18:26N 25°46' W 080°10'0 0.0
2018-Oct-22 18:02N 25°46' W 080°10'0 0.0
2018-Oct-22 17:53N 25°46' W 080°10'0 0.0
2018-Oct-22 17:23N 25°46' W 080°10'0 0.0
2018-Oct-22 17:02N 25°46' W 080°10'0 0.0
2018-Oct-22 16:56N 25°46' W 080°10'0 0.0
2018-Oct-22 16:29N 25°46' W 080°10'0 0.0
2018-Oct-22 16:02N 25°46' W 080°10'0 0.0
2018-Oct-22 15:56N 25°46' W 080°10'0 0.0
2018-Oct-22 15:26N 25°46' W 080°10'0 0.0
2018-Oct-22 14:59N 25°46' W 080°10'0 0.0
2018-Oct-22 13:56N 25°46' W 080°10'0 0.0
2018-Oct-22 13:29N 25°46' W 080°10'0 0.0
2018-Oct-22 12:59N 25°46' W 080°10'0 0.0
2018-Oct-22 12:29N 25°46' W 080°10'0 0.0
2018-Oct-22 12:02N 25°46' W 080°10'0 0.0
2018-Oct-22 11:59N 25°46' W 080°10'0 0.0
2018-Oct-22 11:29N 25°46' W 080°10'0 0.0
2018-Oct-22 11:03N 25°46' W 080°10'0 0.3
2018-Oct-22 11:01N 25°46' W 080°10'1 2.2
2018-Oct-22 10:30N 25°47' W 080°11'3 5.8
2018-Oct-22 10:03N 25°46' W 080°08'110.3
2018-Oct-22 10:00N 25°46' W 080°08'611.1
2018-Oct-22 09:30N 25°47' W 080°02'4 7.8
2018-Oct-22 09:03N 25°48' W 079°58'110.1
2018-Oct-22 09:00N 25°48' W 079°57'510.6
2018-Oct-22 08:30N 25°50' W 079°52'510.1
2018-Oct-22 08:03N 25°52' W 079°47'0 9.8
2018-Oct-22 08:00N 25°52' W 079°47'510.1
2018-Oct-22 07:30N 25°54' W 079°41'4 9.8
2018-Oct-22 07:03N 25°57' W 079°38'0 9.9
2018-Oct-22 07:00N 25°58' W 079°38'510.2
2018-Oct-22 06:30N 26°02' W 079°36'4 9.9
2018-Oct-22 06:03N 26°06' W 079°34'010.1
2018-Oct-22 06:00N 26°07' W 079°34'3201.6
2018-Oct-22 06:00N 26°06' W 079°30'611.5 060 / 221016.510.8 26.024.629.5
2018-Oct-22 05:30N 26°11' W 079°31'510.6
2018-Oct-22 05:03N 26°16' W 079°29'010.6
2018-Oct-22 05:00N 26°16' W 079°29'510.2
2018-Oct-22 04:30N 26°21' W 079°26'  
2018-Oct-19 06:00N 25°42' W 077°30'9720.0 050 / 251019.810.8 28.023.929.8
2018-Oct-19 01:10N 26°19' W 079°09'219.0
2018-Oct-19 01:04N 26°18' W 079°11'219.5
2018-Oct-19 00:58N 26°17' W 079°13'919.6
2018-Oct-19 00:31N 26°11' W 079°20'920.1
2018-Oct-19 00:04N 26°06' W 079°29'120.4
2018-Oct-19 00:01N 26°05' W 079°30'1020.7
2018-Oct-18 23:30N 25°60' W 079°39'920.8
2018-Oct-18 23:04N 25°55' W 079°48'120.8
2018-Oct-18 23:01N 25°54' W 079°49'1020.2
2018-Oct-18 22:31N 25°49' W 079°59'613.2
2018-Oct-18 22:03N 25°46' W 080°05'1 9.9
2018-Oct-18 22:00N 25°46' W 080°05'4 9.1
2018-Oct-18 21:31N 25°47' W 080°10'0 0.5
2018-Oct-18 21:03N 25°47' W 080°10'0 1.2
2018-Oct-18 21:01N 25°47' W 080°10'0 0.0
2018-Oct-18 20:27N 25°46' W 080°10'0 0.0
2018-Oct-18 19:57N 25°46' W 080°10'0 0.0
2018-Oct-18 19:30N 25°46' W 080°10'0 0.0
2018-Oct-18 19:00N 25°46' W 080°10'0 0.0
2018-Oct-18 18:30N 25°46' W 080°10'0 0.0
2018-Oct-18 18:00N 25°46' W 080°10'0 0.0
2018-Oct-18 17:30N 25°46' W 080°10'0 0.0
2018-Oct-18 17:03N 25°46' W 080°10'0 0.0
2018-Oct-18 17:00N 25°46' W 080°10'0 0.0
2018-Oct-18 16:30N 25°46' W 080°10'0 0.0
2018-Oct-18 16:03N 25°46' W 080°10'0 0.0
2018-Oct-18 16:00N 25°46' W 080°10'0 0.0
2018-Oct-18 15:30N 25°46' W 080°10'0 0.0
2018-Oct-18 15:03N 25°46' W 080°10'0 0.0
2018-Oct-18 15:00N 25°46' W 080°10'0 0.0
2018-Oct-18 13:48N 25°46' W 080°10'0 0.0
2018-Oct-18 13:15N 25°46' W 080°10'0 0.0
2018-Oct-18 12:09N 25°46' W 080°10'0 0.0
2018-Oct-18 12:00N 25°46' W 080°10'0 0.0
2018-Oct-18 11:13N 25°46' W 080°10'0 0.0
2018-Oct-18 11:03N 25°46' W 080°10'0 0.0
2018-Oct-18 11:00N 25°46' W 080°10'0 0.0
2018-Oct-18 10:31N 25°46' W 080°10'0 0.0
2018-Oct-18 10:03N 25°46' W 080°10'0 0.0
2018-Oct-18 10:01N 25°46' W 080°10'3 5.5
2018-Oct-18 09:30N 25°45' W 080°07'4 9.0
2018-Oct-18 09:03N 25°47' W 080°03'0 7.1
2018-Oct-18 09:01N 25°47' W 080°02'5 9.8
2018-Oct-18 08:30N 25°49' W 079°58'4 9.9
2018-Oct-18 08:03N 25°52' W 079°54'1 9.8
2018-Oct-18 08:00N 25°52' W 079°53'510.0
2018-Oct-18 07:30N 25°55' W 079°48'4 9.2
2018-Oct-18 07:03N 25°57' W 079°44'0 7.2
2018-Oct-18 06:59N 25°57' W 079°44'6 9.8
2018-Oct-18 06:24N 26°00' W 079°39'819.1
2018-Oct-18 06:00N 26°00' W 079°30'548.2 090 / 131019.510.8 28.025.329.5
2018-Oct-18 05:54N 26°03' W 079°34'79 1.6
2018-Oct-16 06:00N 26°06' W 078°06'5612.9 070 / 141018.710.8 28.025.329.7
2018-Oct-16 01:38N 26°18' W 079°07'412.2
2018-Oct-16 01:17N 26°16' W 079°12'311.9
2018-Oct-16 01:02N 26°14' W 079°14'011.5
2018-Oct-16 01:00N 26°14' W 079°15'611.8
2018-Oct-16 00:30N 26°11' W 079°20'511.7
2018-Oct-16 00:03N 26°08' W 079°25'010.8
2018-Oct-16 00:00N 26°08' W 079°26'611.0
2018-Oct-15 23:30N 26°05' W 079°31'511.2
2018-Oct-15 23:03N 26°02' W 079°36'111.3
2018-Oct-15 23:00N 26°02' W 079°36'611.6
2018-Oct-15 22:30N 25°59' W 079°42'612.5
2018-Oct-15 22:03N 25°56' W 079°47'115.4
2018-Oct-15 22:00N 25°55' W 079°47'815.4
2018-Oct-15 21:30N 25°51' W 079°55'715.2
2018-Oct-15 21:03N 25°47' W 080°01'113.4
2018-Oct-15 21:00N 25°47' W 080°02'510.1
2018-Oct-15 20:30N 25°45' W 080°07'3 5.9
2018-Oct-15 20:01N 25°47' W 080°10'0 0.0
2018-Oct-15 19:58N 25°47' W 080°10'0 0.0
2018-Oct-15 19:31N 25°47' W 080°10'0 0.0
2018-Oct-15 19:04N 25°47' W 080°10'0 0.0
2018-Oct-15 18:58N 25°47' W 080°10'0 0.0
2018-Oct-15 18:28N 25°47' W 080°10'0 0.0
2018-Oct-15 18:01N 25°47' W 080°10'0 0.0
2018-Oct-15 17:28N 25°47' W 080°10'0 0.0
2018-Oct-15 17:01N 25°47' W 080°10'0 0.0
2018-Oct-15 16:31N 25°47' W 080°10'0 0.0
2018-Oct-15 16:04N 25°47' W 080°10'0 0.0
2018-Oct-15 16:01N 25°47' W 080°10'0 0.0
2018-Oct-15 15:19N 25°47' W 080°10'0 0.0
2018-Oct-15 15:01N 25°47' W 080°10'0 0.0
2018-Oct-15 14:52N 25°47' W 080°10'0 0.0
2018-Oct-15 14:31N 25°47' W 080°10'0 0.0
2018-Oct-15 13:58N 25°47' W 080°10'0 0.0
2018-Oct-15 13:28N 25°47' W 080°10'0 0.0
2018-Oct-15 12:55N 25°47' W 080°10'0 0.0
2018-Oct-15 12:25N 25°47' W 080°10'0 0.0
2018-Oct-15 12:03N 25°47' W 080°10'0 0.0
2018-Oct-15 12:00N 25°47' W 080°10'0 0.0
2018-Oct-15 11:30N 25°47' W 080°10'1 1.7
2018-Oct-15 11:03N 25°47' W 080°11'0 1.6
2018-Oct-15 11:01N 25°47' W 080°11'2 4.4
2018-Oct-15 10:30N 25°46' W 080°09'1 3.0
2018-Oct-15 10:03N 25°46' W 080°07'0 5.0
2018-Oct-15 10:00N 25°45' W 080°07'5 9.7
2018-Oct-15 09:30N 25°47' W 080°02'4 9.4
2018-Oct-15 09:03N 25°49' W 079°58'1 9.5
2018-Oct-15 09:00N 25°50' W 079°57'5 9.5
2018-Oct-15 08:30N 25°52' W 079°53'4 9.4
2018-Oct-15 08:03N 25°54' W 079°49'0 9.0
2018-Oct-15 08:00N 25°55' W 079°49'4 8.8
2018-Oct-15 07:30N 25°57' W 079°44'3 6.8
2018-Oct-15 07:03N 25°59' W 079°42'0 6.8
2018-Oct-15 07:00N 25°59' W 079°41'3 6.8
2018-Oct-15 06:30N 26°01' W 079°38'3 7.7
2018-Oct-15 06:03N 26°03' W 079°35'0 9.1
2018-Oct-15 06:00N 26°03' W 079°34'5354.4
2018-Oct-15 06:00N 26°00' W 079°30'510.9 100 / 231017.410.8 28.025.329.7
2018-Oct-15 05:30N 26°05' W 079°30'4 9.0
2018-Oct-15 05:03N 26°07' W 079°26'0 9.2
2018-Oct-15 05:00N 26°08' W 079°26'5 9.1
2018-Oct-15 04:30N 26°10' W 079°21'4 8.6
2018-Oct-15 04:03N 26°12' W 079°18'0 8.7
2018-Oct-15 04:00N 26°12' W 079°17'4 8.9
2018-Oct-15 03:30N 26°15' W 079°13'4 8.5
2018-Oct-15 03:02N 26°17' W 079°09'20 9.8
2018-Oct-15 01:00N 26°12' W 078°48'62 8.9 090 / 101017.710.8 28.022.430.0
2018-Oct-14 18:00N 25°54' W 077°42'39 9.9 130 / 91016.010.8 33.026.430.1
2018-Oct-14 14:00N 25°18' W 077°24'53 1.7 100 / 10 27.0 28.022.430.0
2018-Oct-13 06:00N 26°00' W 078°00'5911.7 170 / 191011.010.8 28.025.330.0
2018-Oct-13 00:55N 26°18' W 079°03'916.3
2018-Oct-13 00:23N 26°16' W 079°12'617.7
2018-Oct-13 00:03N 26°13' W 079°18'117.9
2018-Oct-13 00:00N 26°12' W 079°19'816.2
2018-Oct-12 23:30N 26°08' W 079°26'613.9
2018-Oct-12 23:03N 26°04' W 079°32'  
Track history (hours):
 
Tides and Currents Weather Stations Pressure Air Temp Water Temp Dewpoint Dewpoint Depression Visibility Wind Speed Wind Dir Waves Ship Positions

Carnival Victory

Operator: Carnival Cruise Lines

Last reported at 2018-Oct-22 23:03 UTC. Time now 2018-Oct-22 23:07 UTC.
Position N 25°59' W 079°41'.

Type: Passenger vessel. MMSI: 355263000.

Date/timePositionNaut miles runAvg speedWind from/ knotsBaromVisibWave heightAir tempDewpointWater temp
2018-Oct-22 23:03N 25°59' W 079°41'113.0
2018-Oct-22 23:01N 25°59' W 079°41'612.9
2018-Oct-22 22:31N 25°55' W 079°47'613.0
2018-Oct-22 22:03N 25°52' W 079°53'113.4
2018-Oct-22 22:01N 25°52' W 079°53'815.9
2018-Oct-22 21:31N 25°48' W 080°01'4 9.3
2018-Oct-22 21:03N 25°46' W 080°05'111.5
2018-Oct-22 21:01N 25°46' W 080°06'4 5.7
2018-Oct-22 20:20N 25°46' W 080°10'0 0.0
2018-Oct-22 20:02N 25°46' W 080°10'0 0.0
2018-Oct-22 19:56N 25°46' W 080°10'0 0.0
2018-Oct-22 19:20N 25°46' W 080°10'0 0.0
2018-Oct-22 19:02N 25°46' W 080°10'0 0.0
2018-Oct-22 18:56N 25°46' W 080°10'0 0.0
2018-Oct-22 18:26N 25°46' W 080°10'0 0.0
2018-Oct-22 18:02N 25°46' W 080°10'0 0.0
2018-Oct-22 17:53N 25°46' W 080°10'0 0.0
2018-Oct-22 17:23N 25°46' W 080°10'0 0.0
2018-Oct-22 17:02N 25°46' W 080°10'0 0.0
2018-Oct-22 16:56N 25°46' W 080°10'0 0.0
2018-Oct-22 16:29N 25°46' W 080°10'0 0.0
2018-Oct-22 16:02N 25°46' W 080°10'0 0.0
2018-Oct-22 15:56N 25°46' W 080°10'0 0.0
2018-Oct-22 15:26N 25°46' W 080°10'0 0.0
2018-Oct-22 14:59N 25°46' W 080°10'0 0.0
2018-Oct-22 13:56N 25°46' W 080°10'0 0.0
2018-Oct-22 13:29N 25°46' W 080°10'0 0.0
2018-Oct-22 12:59N 25°46' W 080°10'0 0.0
2018-Oct-22 12:29N 25°46' W 080°10'0 0.0
2018-Oct-22 12:02N 25°46' W 080°10'0 0.0
2018-Oct-22 11:59N 25°46' W 080°10'0 0.0
2018-Oct-22 11:29N 25°46' W 080°10'0 0.0
2018-Oct-22 11:03N 25°46' W 080°10'0 0.3
2018-Oct-22 11:01N 25°46' W 080°10'1 2.2
2018-Oct-22 10:30N 25°47' W 080°11'3 5.8
2018-Oct-22 10:03N 25°46' W 080°08'110.3
2018-Oct-22 10:00N 25°46' W 080°08'611.1
2018-Oct-22 09:30N 25°47' W 080°02'4 7.8
2018-Oct-22 09:03N 25°48' W 079°58'110.1
2018-Oct-22 09:00N 25°48' W 079°57'510.6
2018-Oct-22 08:30N 25°50' W 079°52'510.1
2018-Oct-22 08:03N 25°52' W 079°47'0 9.8
2018-Oct-22 08:00N 25°52' W 079°47'510.1
2018-Oct-22 07:30N 25°54' W 079°41'4 9.8
2018-Oct-22 07:03N 25°57' W 079°38'0 9.9
2018-Oct-22 07:00N 25°58' W 079°38'510.2
2018-Oct-22 06:30N 26°02' W 079°36'4 9.9
2018-Oct-22 06:03N 26°06' W 079°34'010.1
2018-Oct-22 06:00N 26°07' W 079°34'3201.6
2018-Oct-22 06:00N 26°06' W 079°30'611.5 060 / 221016.510.8 26.024.629.5
2018-Oct-22 05:30N 26°11' W 079°31'510.6
2018-Oct-22 05:03N 26°16' W 079°29'010.6
2018-Oct-22 05:00N 26°16' W 079°29'510.2
2018-Oct-22 04:30N 26°21' W 079°26'  
2018-Oct-19 06:00N 25°42' W 077°30'9720.0 050 / 251019.810.8 28.023.929.8
2018-Oct-19 01:10N 26°19' W 079°09'219.0
2018-Oct-19 01:04N 26°18' W 079°11'219.5
2018-Oct-19 00:58N 26°17' W 079°13'919.6
2018-Oct-19 00:31N 26°11' W 079°20'920.1
2018-Oct-19 00:04N 26°06' W 079°29'120.4
2018-Oct-19 00:01N 26°05' W 079°30'1020.7
2018-Oct-18 23:30N 25°60' W 079°39'920.8
2018-Oct-18 23:04N 25°55' W 079°48'120.8
2018-Oct-18 23:01N 25°54' W 079°49'1020.2
2018-Oct-18 22:31N 25°49' W 079°59'613.2
2018-Oct-18 22:03N 25°46' W 080°05'1 9.9
2018-Oct-18 22:00N 25°46' W 080°05'4 9.1
2018-Oct-18 21:31N 25°47' W 080°10'0 0.5
2018-Oct-18 21:03N 25°47' W 080°10'0 1.2
2018-Oct-18 21:01N 25°47' W 080°10'0 0.0
2018-Oct-18 20:27N 25°46' W 080°10'0 0.0
2018-Oct-18 19:57N 25°46' W 080°10'0 0.0
2018-Oct-18 19:30N 25°46' W 080°10'0 0.0
2018-Oct-18 19:00N 25°46' W 080°10'0 0.0
2018-Oct-18 18:30N 25°46' W 080°10'0 0.0
2018-Oct-18 18:00N 25°46' W 080°10'0 0.0
2018-Oct-18 17:30N 25°46' W 080°10'0 0.0
2018-Oct-18 17:03N 25°46' W 080°10'0 0.0
2018-Oct-18 17:00N 25°46' W 080°10'0 0.0
2018-Oct-18 16:30N 25°46' W 080°10'0 0.0
2018-Oct-18 16:03N 25°46' W 080°10'0 0.0
2018-Oct-18 16:00N 25°46' W 080°10'0 0.0
2018-Oct-18 15:30N 25°46' W 080°10'0 0.0
2018-Oct-18 15:03N 25°46' W 080°10'0 0.0
2018-Oct-18 15:00N 25°46' W 080°10'0 0.0
2018-Oct-18 13:48N 25°46' W 080°10'0 0.0
2018-Oct-18 13:15N 25°46' W 080°10'0 0.0
2018-Oct-18 12:09N 25°46' W 080°10'0 0.0
2018-Oct-18 12:00N 25°46' W 080°10'0 0.0
2018-Oct-18 11:13N 25°46' W 080°10'0 0.0
2018-Oct-18 11:03N 25°46' W 080°10'0 0.0
2018-Oct-18 11:00N 25°46' W 080°10'0 0.0
2018-Oct-18 10:31N 25°46' W 080°10'0 0.0
2018-Oct-18 10:03N 25°46' W 080°10'0 0.0
2018-Oct-18 10:01N 25°46' W 080°10'3 5.5
2018-Oct-18 09:30N 25°45' W 080°07'4 9.0
2018-Oct-18 09:03N 25°47' W 080°03'0 7.1
2018-Oct-18 09:01N 25°47' W 080°02'5 9.8
2018-Oct-18 08:30N 25°49' W 079°58'4 9.9
2018-Oct-18 08:03N 25°52' W 079°54'1 9.8
2018-Oct-18 08:00N 25°52' W 079°53'510.0
2018-Oct-18 07:30N 25°55' W 079°48'4 9.2
2018-Oct-18 07:03N 25°57' W 079°44'0 7.2
2018-Oct-18 06:59N 25°57' W 079°44'6 9.8
2018-Oct-18 06:24N 26°00' W 079°39'819.1
2018-Oct-18 06:00N 26°00' W 079°30'548.2 090 / 131019.510.8 28.025.329.5
2018-Oct-18 05:54N 26°03' W 079°34'79 1.6
2018-Oct-16 06:00N 26°06' W 078°06'5612.9 070 / 141018.710.8 28.025.329.7
2018-Oct-16 01:38N 26°18' W 079°07'412.2
2018-Oct-16 01:17N 26°16' W 079°12'311.9
2018-Oct-16 01:02N 26°14' W 079°14'011.5
2018-Oct-16 01:00N 26°14' W 079°15'611.8
2018-Oct-16 00:30N 26°11' W 079°20'511.7
2018-Oct-16 00:03N 26°08' W 079°25'010.8
2018-Oct-16 00:00N 26°08' W 079°26'611.0
2018-Oct-15 23:30N 26°05' W 079°31'511.2
2018-Oct-15 23:03N 26°02' W 079°36'111.3
2018-Oct-15 23:00N 26°02' W 079°36'611.6
2018-Oct-15 22:30N 25°59' W 079°42'612.5
2018-Oct-15 22:03N 25°56' W 079°47'115.4
2018-Oct-15 22:00N 25°55' W 079°47'815.4
2018-Oct-15 21:30N 25°51' W 079°55'715.2
2018-Oct-15 21:03N 25°47' W 080°01'113.4
2018-Oct-15 21:00N 25°47' W 080°02'510.1
2018-Oct-15 20:30N 25°45' W 080°07'3 5.9
2018-Oct-15 20:01N 25°47' W 080°10'0 0.0
2018-Oct-15 19:58N 25°47' W 080°10'0 0.0
2018-Oct-15 19:31N 25°47' W 080°10'0 0.0
2018-Oct-15 19:04N 25°47' W 080°10'0 0.0
2018-Oct-15 18:58N 25°47' W 080°10'0 0.0
2018-Oct-15 18:28N 25°47' W 080°10'0 0.0
2018-Oct-15 18:01N 25°47' W 080°10'0 0.0
2018-Oct-15 17:28N 25°47' W 080°10'0 0.0
2018-Oct-15 17:01N 25°47' W 080°10'0 0.0
2018-Oct-15 16:31N 25°47' W 080°10'0 0.0
2018-Oct-15 16:04N 25°47' W 080°10'0 0.0
2018-Oct-15 16:01N 25°47' W 080°10'0 0.0
2018-Oct-15 15:19N 25°47' W 080°10'0 0.0
2018-Oct-15 15:01N 25°47' W 080°10'0 0.0
2018-Oct-15 14:52N 25°47' W 080°10'0 0.0
2018-Oct-15 14:31N 25°47' W 080°10'0 0.0
2018-Oct-15 13:58N 25°47' W 080°10'0 0.0
2018-Oct-15 13:28N 25°47' W 080°10'0 0.0
2018-Oct-15 12:55N 25°47' W 080°10'0 0.0
2018-Oct-15 12:25N 25°47' W 080°10'0 0.0
2018-Oct-15 12:03N 25°47' W 080°10'0 0.0
2018-Oct-15 12:00N 25°47' W 080°10'0 0.0
2018-Oct-15 11:30N 25°47' W 080°10'1 1.7
2018-Oct-15 11:03N 25°47' W 080°11'0 1.6
2018-Oct-15 11:01N 25°47' W 080°11'2 4.4
2018-Oct-15 10:30N 25°46' W 080°09'1 3.0
2018-Oct-15 10:03N 25°46' W 080°07'0 5.0
2018-Oct-15 10:00N 25°45' W 080°07'5 9.7
2018-Oct-15 09:30N 25°47' W 080°02'4 9.4
2018-Oct-15 09:03N 25°49' W 079°58'1 9.5
2018-Oct-15 09:00N 25°50' W 079°57'5 9.5
2018-Oct-15 08:30N 25°52' W 079°53'4 9.4
2018-Oct-15 08:03N 25°54' W 079°49'0 9.0
2018-Oct-15 08:00N 25°55' W 079°49'4 8.8
2018-Oct-15 07:30N 25°57' W 079°44'3 6.8
2018-Oct-15 07:03N 25°59' W 079°42'0 6.8
2018-Oct-15 07:00N 25°59' W 079°41'3 6.8
2018-Oct-15 06:30N 26°01' W 079°38'3 7.7
2018-Oct-15 06:03N 26°03' W 079°35'0 9.1
2018-Oct-15 06:00N 26°03' W 079°34'5354.4
2018-Oct-15 06:00N 26°00' W 079°30'510.9 100 / 231017.410.8 28.025.329.7
2018-Oct-15 05:30N 26°05' W 079°30'4 9.0
2018-Oct-15 05:03N 26°07' W 079°26'0 9.2
2018-Oct-15 05:00N 26°08' W 079°26'5 9.1
2018-Oct-15 04:30N 26°10' W 079°21'4 8.6
2018-Oct-15 04:03N 26°12' W 079°18'0 8.7
2018-Oct-15 04:00N 26°12' W 079°17'4 8.9
2018-Oct-15 03:30N 26°15' W 079°13'4 8.5
2018-Oct-15 03:02N 26°17' W 079°09'20 9.8
2018-Oct-15 01:00N 26°12' W 078°48'62 8.9 090 / 101017.710.8 28.022.430.0
2018-Oct-14 18:00N 25°54' W 077°42'39 9.9 130 / 91016.010.8 33.026.430.1
2018-Oct-14 14:00N 25°18' W 077°24'53 1.7 100 / 10 27.0 28.022.430.0
2018-Oct-13 06:00N 26°00' W 078°00'5911.7 170 / 191011.010.8 28.025.330.0
2018-Oct-13 00:55N 26°18' W 079°03'916.3
2018-Oct-13 00:23N 26°16' W 079°12'617.7
2018-Oct-13 00:03N 26°13' W 079°18'117.9
2018-Oct-13 00:00N 26°12' W 079°19'816.2
2018-Oct-12 23:30N 26°08' W 079°26'613.9
2018-Oct-12 23:03N 26°04' W 079°32'  

Dump ship's entire track history